sensor_id;sensor_type;location;lat;lon;timestamp;pressure;altitude;pressure_sealevel;temperature;humidity
1832;BME280;1680;48.106;11.708;2023-01-28T00:01:59;95834.63;;;0.85;100.00
1832;BME280;1680;48.106;11.708;2023-01-28T00:04:27;95836.91;;;0.88;100.00
1832;BME280;1680;48.106;11.708;2023-01-28T00:06:54;95837.88;;;0.87;100.00
1832;BME280;1680;48.106;11.708;2023-01-28T00:09:21;95830.13;;;0.79;100.00
1832;BME280;1680;48.106;11.708;2023-01-28T00:11:50;95833.13;;;0.67;100.00
1832;BME280;1680;48.106;11.708;2023-01-28T00:14:17;95842.00;;;0.64;100.00
1832;BME280;1680;48.106;11.708;2023-01-28T00:16:45;95834.13;;;0.74;100.00
1832;BME280;1680;48.106;11.708;2023-01-28T00:19:12;95848.44;;;0.68;100.00
1832;BME280;1680;48.106;11.708;2023-01-28T00:21:40;95835.41;;;0.70;100.00
1832;BME280;1680;48.106;11.708;2023-01-28T00:24:07;95838.50;;;0.81;100.00
1832;BME280;1680;48.106;11.708;2023-01-28T00:26:35;95836.84;;;0.72;100.00
1832;BME280;1680;48.106;11.708;2023-01-28T00:29:04;95848.78;;;0.73;100.00
1832;BME280;1680;48.106;11.708;2023-01-28T00:31:31;95847.34;;;1.28;100.00
1832;BME280;1680;48.106;11.708;2023-01-28T00:33:59;95837.97;;;1.19;100.00
1832;BME280;1680;48.106;11.708;2023-01-28T00:36:27;95839.53;;;1.04;100.00
1832;BME280;1680;48.106;11.708;2023-01-28T00:38:56;95841.78;;;0.99;100.00
1832;BME280;1680;48.106;11.708;2023-01-28T00:41:25;95834.50;;;0.87;100.00
1832;BME280;1680;48.106;11.708;2023-01-28T00:43:53;95829.47;;;0.85;100.00
1832;BME280;1680;48.106;11.708;2023-01-28T00:46:22;95838.19;;;0.84;100.00
1832;BME280;1680;48.106;11.708;2023-01-28T00:48:51;95844.47;;;0.82;100.00
1832;BME280;1680;48.106;11.708;2023-01-28T00:51:19;95842.97;;;0.71;100.00
1832;BME280;1680;48.106;11.708;2023-01-28T00:53:46;95836.72;;;0.74;100.00
1832;BME280;1680;48.106;11.708;2023-01-28T00:56:15;95835.34;;;0.62;100.00
1832;BME280;1680;48.106;11.708;2023-01-28T00:58:44;95829.56;;;0.60;100.00
1832;BME280;1680;48.106;11.708;2023-01-28T01:01:12;95840.06;;;0.66;100.00
1832;BME280;1680;48.106;11.708;2023-01-28T01:03:41;95840.84;;;0.59;100.00
1832;BME280;1680;48.106;11.708;2023-01-28T01:06:10;95841.78;;;0.58;100.00
1832;BME280;1680;48.106;11.708;2023-01-28T01:08:37;95842.47;;;0.68;100.00
1832;BME280;1680;48.106;11.708;2023-01-28T01:11:08;95842.59;;;0.58;100.00
1832;BME280;1680;48.106;11.708;2023-01-28T01:13:36;95852.31;;;0.64;100.00
1832;BME280;1680;48.106;11.708;2023-01-28T01:16:06;95844.56;;;0.64;100.00
1832;BME280;1680;48.106;11.708;2023-01-28T01:18:34;95848.44;;;0.68;100.00
1832;BME280;1680;48.106;11.708;2023-01-28T01:21:07;95829.84;;;0.57;100.00
1832;BME280;1680;48.106;11.708;2023-01-28T01:23:34;95846.84;;;0.67;100.00
1832;BME280;1680;48.106;11.708;2023-01-28T01:26:02;95842.97;;;0.71;100.00
1832;BME280;1680;48.106;11.708;2023-01-28T01:28:29;95852.97;;;0.66;100.00
1832;BME280;1680;48.106;11.708;2023-01-28T01:31:00;95853.09;;;0.65;100.00
1832;BME280;1680;48.106;11.708;2023-01-28T01:33:29;95843.22;;;0.52;100.00
1832;BME280;1680;48.106;11.708;2023-01-28T01:35:56;95858.06;;;0.58;100.00
1832;BME280;1680;48.106;11.708;2023-01-28T01:38:26;95848.78;;;0.65;100.00
1832;BME280;1680;48.106;11.708;2023-01-28T01:40:55;95856.81;;;0.62;100.00
1832;BME280;1680;48.106;11.708;2023-01-28T01:43:24;95833.88;;;0.51;100.00
1832;BME280;1680;48.106;11.708;2023-01-28T01:45:55;95854.88;;;0.64;100.00
1832;BME280;1680;48.106;11.708;2023-01-28T01:48:27;95857.41;;;0.56;100.00
1832;BME280;1680;48.106;11.708;2023-01-28T01:50:58;95866.38;;;0.44;100.00
1832;BME280;1680;48.106;11.708;2023-01-28T01:53:29;95872.22;;;0.54;100.00
1832;BME280;1680;48.106;11.708;2023-01-28T01:56:00;95874.56;;;0.65;100.00
1832;BME280;1680;48.106;11.708;2023-01-28T01:58:31;95872.00;;;0.65;100.00
1832;BME280;1680;48.106;11.708;2023-01-28T02:01:00;95863.88;;;0.60;100.00
1832;BME280;1680;48.106;11.708;2023-01-28T02:03:32;95871.03;;;0.66;100.00
1832;BME280;1680;48.106;11.708;2023-01-28T02:06:03;95865.88;;;0.74;100.00
1832;BME280;1680;48.106;11.708;2023-01-28T02:08:32;95873.94;;;0.71;100.00
1832;BME280;1680;48.106;11.708;2023-01-28T02:11:02;95870.09;;;0.75;100.00
1832;BME280;1680;48.106;11.708;2023-01-28T02:13:35;95867.78;;;0.64;100.00
1832;BME280;1680;48.106;11.708;2023-01-28T02:16:05;95872.94;;;0.64;100.00
1832;BME280;1680;48.106;11.708;2023-01-28T02:18:33;95865.88;;;0.66;100.00
1832;BME280;1680;48.106;11.708;2023-01-28T02:21:21;95876.03;;;0.68;100.00
1832;BME280;1680;48.106;11.708;2023-01-28T02:24:09;95880.41;;;0.75;100.00
1832;BME280;1680;48.106;11.708;2023-01-28T02:27:15;95883.97;;;0.74;100.00
1832;BME280;1680;48.106;11.708;2023-01-28T02:29:49;95876.38;;;0.73;100.00
1832;BME280;1680;48.106;11.708;2023-01-28T02:32:24;95875.84;;;0.69;100.00
1832;BME280;1680;48.106;11.708;2023-01-28T02:35:00;95876.56;;;0.79;100.00
1832;BME280;1680;48.106;11.708;2023-01-28T02:37:37;95872.84;;;0.82;100.00
1832;BME280;1680;48.106;11.708;2023-01-28T02:40:09;95879.09;;;0.71;100.00
1832;BME280;1680;48.106;11.708;2023-01-28T02:42:38;95877.53;;;0.78;100.00
1832;BME280;1680;48.106;11.708;2023-01-28T02:45:15;95879.09;;;0.71;100.00
1832;BME280;1680;48.106;11.708;2023-01-28T02:47:44;95881.22;;;0.76;100.00
1832;BME280;1680;48.106;11.708;2023-01-28T02:50:25;95875.84;;;0.69;100.00
1832;BME280;1680;48.106;11.708;2023-01-28T02:53:05;95883.28;;;0.64;100.00
1832;BME280;1680;48.106;11.708;2023-01-28T02:55:55;95880.34;;;0.59;100.00
1832;BME280;1680;48.106;11.708;2023-01-28T02:58:32;95881.78;;;0.62;100.00
1832;BME280;1680;48.106;11.708;2023-01-28T03:01:09;95879.66;;;0.57;100.00
1832;BME280;1680;48.106;11.708;2023-01-28T03:03:48;95890.53;;;0.69;100.00
1832;BME280;1680;48.106;11.708;2023-01-28T03:06:21;95884.88;;;0.65;100.00
1832;BME280;1680;48.106;11.708;2023-01-28T03:08:52;95889.38;;;0.63;100.00
1832;BME280;1680;48.106;11.708;2023-01-28T03:11:41;95885.88;;;0.72;100.00
1832;BME280;1680;48.106;11.708;2023-01-28T03:14:26;95888.63;;;0.71;100.00
1832;BME280;1680;48.106;11.708;2023-01-28T03:17:16;95887.84;;;0.78;100.00
1832;BME280;1680;48.106;11.708;2023-01-28T03:20:03;95904.09;;;0.71;100.00
1832;BME280;1680;48.106;11.708;2023-01-28T03:22:50;95901.34;;;0.72;100.00
1832;BME280;1680;48.106;11.708;2023-01-28T03:25:39;95888.94;;;0.76;100.00
1832;BME280;1680;48.106;11.708;2023-01-28T03:28:27;95889.09;;;0.66;100.00
1832;BME280;1680;48.106;11.708;2023-01-28T03:31:14;95883.41;;;0.63;100.00
1832;BME280;1680;48.106;11.708;2023-01-28T03:34:03;95893.16;;;0.77;100.00
1832;BME280;1680;48.106;11.708;2023-01-28T03:36:49;95896.25;;;0.80;100.00
1832;BME280;1680;48.106;11.708;2023-01-28T03:39:18;95901.34;;;0.72;100.00
1832;BME280;1680;48.106;11.708;2023-01-28T03:42:02;95900.69;;;0.70;100.00
1832;BME280;1680;48.106;11.708;2023-01-28T03:44:30;95909.06;;;0.64;100.00
1832;BME280;1680;48.106;11.708;2023-01-28T03:47:17;95905.19;;;0.68;100.00
1832;BME280;1680;48.106;11.708;2023-01-28T03:49:48;95890.75;;;0.75;100.00
1832;BME280;1680;48.106;11.708;2023-01-28T03:52:16;95897.22;;;0.79;100.00
1832;BME280;1680;48.106;11.708;2023-01-28T03:54:44;95896.69;;;0.76;100.00
1832;BME280;1680;48.106;11.708;2023-01-28T03:57:13;95901.22;;;0.74;100.00
1832;BME280;1680;48.106;11.708;2023-01-28T03:59:40;95893.91;;;0.69;100.00
1832;BME280;1680;48.106;11.708;2023-01-28T04:02:08;95913.31;;;0.73;100.00
1832;BME280;1680;48.106;11.708;2023-01-28T04:04:37;95914.72;;;0.68;100.00
1832;BME280;1680;48.106;11.708;2023-01-28T04:07:07;95902.97;;;0.73;100.00
1832;BME280;1680;48.106;11.708;2023-01-28T04:09:35;95885.03;;;0.64;100.00
1832;BME280;1680;48.106;11.708;2023-01-28T04:12:03;95908.44;;;0.70;100.00
1832;BME280;1680;48.106;11.708;2023-01-28T04:14:31;95913.59;;;0.70;100.00
1832;BME280;1680;48.106;11.708;2023-01-28T04:16:58;95912.66;;;0.71;100.00
1832;BME280;1680;48.106;11.708;2023-01-28T04:19:26;95913.59;;;0.70;100.00
1832;BME280;1680;48.106;11.708;2023-01-28T04:21:56;95914.44;;;0.71;100.00
1832;BME280;1680;48.106;11.708;2023-01-28T04:24:24;95922.78;;;0.65;100.00
1832;BME280;1680;48.106;11.708;2023-01-28T04:26:52;95927.78;;;0.66;100.00
1832;BME280;1680;48.106;11.708;2023-01-28T04:29:19;95924.84;;;0.61;100.00
1832;BME280;1680;48.106;11.708;2023-01-28T04:31:46;95921.69;;;0.67;100.00
1832;BME280;1680;48.106;11.708;2023-01-28T04:34:14;95925.16;;;0.58;100.00
1832;BME280;1680;48.106;11.708;2023-01-28T04:36:42;95930.19;;;0.60;100.00
1832;BME280;1680;48.106;11.708;2023-01-28T04:39:09;95945.59;;;0.77;100.00
1832;BME280;1680;48.106;11.708;2023-01-28T04:41:38;95938.63;;;0.70;100.00
1832;BME280;1680;48.106;11.708;2023-01-28T04:44:05;95934.41;;;0.69;100.00
1832;BME280;1680;48.106;11.708;2023-01-28T04:46:33;95938.31;;;0.73;100.00
1832;BME280;1680;48.106;11.708;2023-01-28T04:49:00;95914.53;;;0.61;100.00
1832;BME280;1680;48.106;11.708;2023-01-28T04:51:27;95939.81;;;0.83;100.00
1832;BME280;1680;48.106;11.708;2023-01-28T04:53:55;95944.66;;;0.86;100.00
1832;BME280;1680;48.106;11.708;2023-01-28T04:56:22;95945.78;;;0.84;100.00
1832;BME280;1680;48.106;11.708;2023-01-28T04:58:51;95943.00;;;0.77;100.00
1832;BME280;1680;48.106;11.708;2023-01-28T05:01:18;95946.91;;;0.81;100.00
1832;BME280;1680;48.106;11.708;2023-01-28T05:03:45;95950.78;;;0.85;100.00
1832;BME280;1680;48.106;11.708;2023-01-28T05:06:13;95921.91;;;0.56;100.00
1832;BME280;1680;48.106;11.708;2023-01-28T05:08:40;95950.00;;;0.59;100.00
1832;BME280;1680;48.106;11.708;2023-01-28T05:11:07;95955.56;;;0.72;100.00
1832;BME280;1680;48.106;11.708;2023-01-28T05:13:34;95955.56;;;0.72;100.00
1832;BME280;1680;48.106;11.708;2023-01-28T05:16:05;95964.00;;;0.57;100.00
1832;BME280;1680;48.106;11.708;2023-01-28T05:18:32;95917.28;;;0.34;100.00
1832;BME280;1680;48.106;11.708;2023-01-28T05:20:59;95960.69;;;0.64;100.00
1832;BME280;1680;48.106;11.708;2023-01-28T05:23:27;95952.94;;;0.64;100.00
1832;BME280;1680;48.106;11.708;2023-01-28T05:25:54;95958.09;;;0.64;100.00
1832;BME280;1680;48.106;11.708;2023-01-28T05:28:21;95949.03;;;0.60;100.00
1832;BME280;1680;48.106;11.708;2023-01-28T05:30:49;95960.28;;;0.51;100.00
1832;BME280;1680;48.106;11.708;2023-01-28T05:33:17;95968.22;;;0.58;100.00
1832;BME280;1680;48.106;11.708;2023-01-28T05:35:45;95970.25;;;0.54;100.00
1832;BME280;1680;48.106;11.708;2023-01-28T05:38:13;95977.38;;;0.52;100.00
1832;BME280;1680;48.106;11.708;2023-01-28T05:40:41;95977.56;;;0.59;100.00
1832;BME280;1680;48.106;11.708;2023-01-28T05:43:08;95974.94;;;0.51;100.00
1832;BME280;1680;48.106;11.708;2023-01-28T05:45:35;95979.41;;;0.66;100.00
1832;BME280;1680;48.106;11.708;2023-01-28T05:48:03;95981.22;;;0.48;100.00
1832;BME280;1680;48.106;11.708;2023-01-28T05:50:32;95988.00;;;0.49;100.00
1832;BME280;1680;48.106;11.708;2023-01-28T05:52:59;95983.91;;;0.47;100.00
1832;BME280;1680;48.106;11.708;2023-01-28T05:55:27;95983.66;;;0.32;100.00
1832;BME280;1680;48.106;11.708;2023-01-28T05:57:54;95989.19;;;0.37;100.00
1832;BME280;1680;48.106;11.708;2023-01-28T06:00:22;95992.09;;;0.42;100.00
1832;BME280;1680;48.106;11.708;2023-01-28T06:02:50;95951.00;;;0.23;100.00
1832;BME280;1680;48.106;11.708;2023-01-28T06:05:19;95985.88;;;0.45;100.00
1832;BME280;1680;48.106;11.708;2023-01-28T06:07:47;95997.03;;;0.53;100.00
1832;BME280;1680;48.106;11.708;2023-01-28T06:10:15;95996.56;;;0.32;100.00
1832;BME280;1680;48.106;11.708;2023-01-28T06:12:43;95998.19;;;0.33;100.00
1832;BME280;1680;48.106;11.708;2023-01-28T06:15:10;96001.03;;;0.30;100.00
1832;BME280;1680;48.106;11.708;2023-01-28T06:17:38;95960.47;;;-0.03;100.00
1832;BME280;1680;48.106;11.708;2023-01-28T06:20:06;96005.69;;;0.27;100.00
1832;BME280;1680;48.106;11.708;2023-01-28T06:22:33;95999.72;;;0.26;100.00
1832;BME280;1680;48.106;11.708;2023-01-28T06:25:02;96002.88;;;0.38;100.00
1832;BME280;1680;48.106;11.708;2023-01-28T06:27:30;96007.75;;;0.41;100.00
1832;BME280;1680;48.106;11.708;2023-01-28T06:29:57;96012.31;;;0.29;100.00
1832;BME280;1680;48.106;11.708;2023-01-28T06:32:24;96015.06;;;0.28;100.00
1832;BME280;1680;48.106;11.708;2023-01-28T06:34:52;96015.31;;;0.42;100.00
1832;BME280;1680;48.106;11.708;2023-01-28T06:37:19;96015.94;;;0.36;100.00
1832;BME280;1680;48.106;11.708;2023-01-28T06:39:46;96016.16;;;0.43;100.00
1832;BME280;1680;48.106;11.708;2023-01-28T06:42:15;96014.56;;;0.50;100.00
1832;BME280;1680;48.106;11.708;2023-01-28T06:44:42;96018.03;;;0.58;100.00
1832;BME280;1680;48.106;11.708;2023-01-28T06:47:09;96029.06;;;0.68;100.00
1832;BME280;1680;48.106;11.708;2023-01-28T06:49:36;96030.06;;;0.67;100.00
1832;BME280;1680;48.106;11.708;2023-01-28T06:52:03;96027.59;;;0.66;100.00
1832;BME280;1680;48.106;11.708;2023-01-28T06:54:31;96029.69;;;0.62;100.00
1832;BME280;1680;48.106;11.708;2023-01-28T06:56:58;96029.25;;;0.49;100.00
1832;BME280;1680;48.106;11.708;2023-01-28T06:59:26;96030.00;;;0.42;100.00
1832;BME280;1680;48.106;11.708;2023-01-28T07:01:54;96032.94;;;0.47;100.00
1832;BME280;1680;48.106;11.708;2023-01-28T07:04:21;96036.34;;;0.47;100.00
1832;BME280;1680;48.106;11.708;2023-01-28T07:06:48;96041.00;;;0.44;100.00
1832;BME280;1680;48.106;11.708;2023-01-28T07:09:15;96041.13;;;0.60;100.00
1832;BME280;1680;48.106;11.708;2023-01-28T07:11:42;96038.38;;;0.61;100.00
1832;BME280;1680;48.106;11.708;2023-01-28T07:14:10;96042.22;;;0.57;100.00
1832;BME280;1680;48.106;11.708;2023-01-28T07:16:39;96048.19;;;0.58;100.00
1832;BME280;1680;48.106;11.708;2023-01-28T07:19:06;96039.78;;;0.56;100.00
1832;BME280;1680;48.106;11.708;2023-01-28T07:21:33;96039.19;;;0.62;100.00
1832;BME280;1680;48.106;11.708;2023-01-28T07:24:01;96051.66;;;0.66;100.00
1832;BME280;1680;48.106;11.708;2023-01-28T07:26:29;96055.19;;;0.65;100.00
1832;BME280;1680;48.106;11.708;2023-01-28T07:28:57;96053.56;;;0.64;100.00
1832;BME280;1680;48.106;11.708;2023-01-28T07:31:24;96052.91;;;0.62;100.00
1832;BME280;1680;48.106;11.708;2023-01-28T07:33:53;96066.47;;;0.64;100.00
1832;BME280;1680;48.106;11.708;2023-01-28T07:36:20;96064.91;;;0.71;100.00
1832;BME280;1680;48.106;11.708;2023-01-28T07:38:47;96070.88;;;0.72;100.00
1832;BME280;1680;48.106;11.708;2023-01-28T07:41:14;96015.03;;;0.45;100.00
1832;BME280;1680;48.106;11.708;2023-01-28T07:43:42;96073.50;;;0.80;100.00
1832;BME280;1680;48.106;11.708;2023-01-28T07:46:09;96072.75;;;0.87;100.00
1832;BME280;1680;48.106;11.708;2023-01-28T07:48:36;96076.00;;;0.89;100.00
1832;BME280;1680;48.106;11.708;2023-01-28T07:51:05;96055.19;;;0.65;100.00
1832;BME280;1680;48.106;11.708;2023-01-28T07:53:32;96071.75;;;0.80;100.00
1832;BME280;1680;48.106;11.708;2023-01-28T07:56:00;96053.88;;;0.61;100.00
1832;BME280;1680;48.106;11.708;2023-01-28T07:58:27;96078.97;;;0.77;100.00
1832;BME280;1680;48.106;11.708;2023-01-28T08:00:56;96084.97;;;0.77;100.00
1832;BME280;1680;48.106;11.708;2023-01-28T08:03:24;96096.06;;;0.78;100.00
1832;BME280;1680;48.106;11.708;2023-01-28T08:05:53;96096.16;;;0.68;100.00
1832;BME280;1680;48.106;11.708;2023-01-28T08:08:23;96102.41;;;0.83;100.00
1832;BME280;1680;48.106;11.708;2023-01-28T08:10:52;96095.72;;;0.73;100.00
1832;BME280;1680;48.106;11.708;2023-01-28T08:13:19;96106.47;;;0.68;100.00
1832;BME280;1680;48.106;11.708;2023-01-28T08:15:47;96099.56;;;0.69;100.00
1832;BME280;1680;48.106;11.708;2023-01-28T08:18:16;96104.50;;;0.80;100.00
1832;BME280;1680;48.106;11.708;2023-01-28T08:20:43;96101.16;;;0.87;100.00
1832;BME280;1680;48.106;11.708;2023-01-28T08:23:14;96104.13;;;0.92;100.00
1832;BME280;1680;48.106;11.708;2023-01-28T08:25:44;96113.78;;;0.90;100.00
1832;BME280;1680;48.106;11.708;2023-01-28T08:28:12;96115.03;;;1.03;100.00
1832;BME280;1680;48.106;11.708;2023-01-28T08:30:40;96118.03;;;0.99;100.00
1832;BME280;1680;48.106;11.708;2023-01-28T08:33:09;96125.78;;;0.99;100.00
1832;BME280;1680;48.106;11.708;2023-01-28T08:35:38;96118.69;;;1.01;100.00
1832;BME280;1680;48.106;11.708;2023-01-28T08:38:06;96123.84;;;1.01;100.00
1832;BME280;1680;48.106;11.708;2023-01-28T08:40:34;96118.09;;;1.07;100.00
1832;BME280;1680;48.106;11.708;2023-01-28T08:43:03;96123.97;;;1.17;100.00
1832;BME280;1680;48.106;11.708;2023-01-28T08:45:31;96125.91;;;1.15;100.00
1832;BME280;1680;48.106;11.708;2023-01-28T08:48:00;96124.63;;;1.19;100.00
1832;BME280;1680;48.106;11.708;2023-01-28T08:50:31;96130.56;;;1.11;100.00
1832;BME280;1680;48.106;11.708;2023-01-28T08:53:00;96130.69;;;1.27;100.00
1832;BME280;1680;48.106;11.708;2023-01-28T08:55:29;96122.72;;;1.21;100.00
1832;BME280;1680;48.106;11.708;2023-01-28T08:57:56;96125.00;;;1.24;100.00
1832;BME280;1680;48.106;11.708;2023-01-28T09:00:25;96132.13;;;1.30;100.00
1832;BME280;1680;48.106;11.708;2023-01-28T09:02:52;96133.84;;;1.39;100.00
1832;BME280;1680;48.106;11.708;2023-01-28T09:05:20;96125.63;;;1.43;100.00
1832;BME280;1680;48.106;11.708;2023-01-28T09:07:48;96121.97;;;1.54;100.00
1832;BME280;1680;48.106;11.708;2023-01-28T09:10:16;96132.97;;;1.56;100.00
1832;BME280;1680;48.106;11.708;2023-01-28T09:12:45;96145.22;;;1.54;100.00
1832;BME280;1680;48.106;11.708;2023-01-28T09:15:12;96116.06;;;1.44;100.00
1832;BME280;1680;48.106;11.708;2023-01-28T09:17:41;96133.97;;;1.63;100.00
1832;BME280;1680;48.106;11.708;2023-01-28T09:20:09;96145.75;;;1.65;100.00
1832;BME280;1680;48.106;11.708;2023-01-28T09:22:37;96135.59;;;1.64;100.00
1832;BME280;1680;48.106;11.708;2023-01-28T09:25:05;96152.75;;;1.73;100.00
1832;BME280;1680;48.106;11.708;2023-01-28T09:27:32;96154.22;;;1.75;100.00
1832;BME280;1680;48.106;11.708;2023-01-28T09:30:00;96140.03;;;1.79;100.00
1832;BME280;1680;48.106;11.708;2023-01-28T09:32:27;96143.44;;;1.80;100.00
1832;BME280;1680;48.106;11.708;2023-01-28T09:34:57;96142.94;;;1.76;100.00
1832;BME280;1680;48.106;11.708;2023-01-28T09:37:24;96140.56;;;1.90;100.00
1832;BME280;1680;48.106;11.708;2023-01-28T09:39:52;96142.84;;;1.93;100.00
1832;BME280;1680;48.106;11.708;2023-01-28T09:42:29;96150.97;;;2.06;100.00
1832;BME280;1680;48.106;11.708;2023-01-28T09:45:04;96133.91;;;2.21;99.29
1832;BME280;1680;48.106;11.708;2023-01-28T09:47:38;96136.00;;;2.26;97.74
1832;BME280;1680;48.106;11.708;2023-01-28T09:50:14;96141.41;;;2.48;97.27
1832;BME280;1680;48.106;11.708;2023-01-28T09:52:43;96130.03;;;2.33;95.12
1832;BME280;1680;48.106;11.708;2023-01-28T09:55:19;96126.53;;;2.42;95.69
1832;BME280;1680;48.106;11.708;2023-01-28T09:57:50;96131.56;;;2.60;95.73
1832;BME280;1680;48.106;11.708;2023-01-28T10:00:20;96128.88;;;2.85;92.77
1832;BME280;1680;48.106;11.708;2023-01-28T10:02:56;96132.44;;;2.92;96.83
1832;BME280;1680;48.106;11.708;2023-01-28T10:05:34;96129.50;;;2.95;93.61
1832;BME280;1680;48.106;11.708;2023-01-28T10:08:21;96133.88;;;2.94;92.90
1832;BME280;1680;48.106;11.708;2023-01-28T10:10:57;96132.09;;;2.95;91.08
1832;BME280;1680;48.106;11.708;2023-01-28T10:13:31;96126.94;;;3.03;91.39
1832;BME280;1680;48.106;11.708;2023-01-28T10:16:11;96121.09;;;3.09;90.72
1832;BME280;1680;48.106;11.708;2023-01-28T10:18:45;96133.75;;;3.04;89.33
1832;BME280;1680;48.106;11.708;2023-01-28T10:21:21;96124.34;;;2.87;89.33
1832;BME280;1680;48.106;11.708;2023-01-28T10:23:56;96121.44;;;2.90;89.54
1832;BME280;1680;48.106;11.708;2023-01-28T10:26:31;96121.75;;;3.03;89.71
1832;BME280;1680;48.106;11.708;2023-01-28T10:29:03;96121.75;;;3.19;88.28
1832;BME280;1680;48.106;11.708;2023-01-28T10:31:35;96120.94;;;3.10;87.94
1832;BME280;1680;48.106;11.708;2023-01-28T10:34:07;96122.38;;;2.97;88.07
1832;BME280;1680;48.106;11.708;2023-01-28T10:36:36;96131.63;;;2.99;89.08
1832;BME280;1680;48.106;11.708;2023-01-28T10:39:04;96125.94;;;2.96;88.97
1832;BME280;1680;48.106;11.708;2023-01-28T10:41:33;96123.84;;;2.84;88.40
1832;BME280;1680;48.106;11.708;2023-01-28T10:44:01;96128.28;;;2.34;90.93
1832;BME280;1680;48.106;11.708;2023-01-28T10:46:31;96129.13;;;2.50;91.59
1832;BME280;1680;48.106;11.708;2023-01-28T10:49:05;96125.28;;;2.70;91.08
1832;BME280;1680;48.106;11.708;2023-01-28T10:51:36;96123.97;;;2.66;89.54
1832;BME280;1680;48.106;11.708;2023-01-28T10:54:17;96116.88;;;2.76;90.52
1832;BME280;1680;48.106;11.708;2023-01-28T10:56:46;96119.13;;;2.79;89.16
1832;BME280;1680;48.106;11.708;2023-01-28T10:59:19;96113.63;;;2.82;88.86
1832;BME280;1680;48.106;11.708;2023-01-28T11:01:50;96128.22;;;2.91;89.75
1832;BME280;1680;48.106;11.708;2023-01-28T11:04:22;96115.91;;;2.93;88.41
1832;BME280;1680;48.106;11.708;2023-01-28T11:06:56;96118.03;;;2.97;88.52
1832;BME280;1680;48.106;11.708;2023-01-28T11:09:26;96128.41;;;2.97;87.41
1832;BME280;1680;48.106;11.708;2023-01-28T11:11:55;96129.03;;;3.07;87.68
1832;BME280;1680;48.106;11.708;2023-01-28T11:14:23;96119.81;;;3.05;87.92
1832;BME280;1680;48.106;11.708;2023-01-28T11:16:52;96119.47;;;3.16;86.92
1832;BME280;1680;48.106;11.708;2023-01-28T11:19:26;96118.81;;;3.30;86.04
1832;BME280;1680;48.106;11.708;2023-01-28T11:21:56;96121.38;;;3.38;85.21
1832;BME280;1680;48.106;11.708;2023-01-28T11:24:26;96128.03;;;3.40;86.10
1832;BME280;1680;48.106;11.708;2023-01-28T11:26:57;96131.44;;;3.41;86.50
1832;BME280;1680;48.106;11.708;2023-01-28T11:29:27;96102.31;;;2.99;85.67
1832;BME280;1680;48.106;11.708;2023-01-28T11:31:57;96125.28;;;3.42;87.11
1832;BME280;1680;48.106;11.708;2023-01-28T11:34:26;96134.03;;;3.09;86.76
1832;BME280;1680;48.106;11.708;2023-01-28T11:37:02;96129.50;;;3.27;87.79
1832;BME280;1680;48.106;11.708;2023-01-28T11:39:30;96113.00;;;3.36;85.53
1832;BME280;1680;48.106;11.708;2023-01-28T11:42:11;96129.97;;;3.46;83.52
1832;BME280;1680;48.106;11.708;2023-01-28T11:44:39;96116.53;;;3.51;83.91
1832;BME280;1680;48.106;11.708;2023-01-28T11:47:21;96134.56;;;3.90;81.99
1832;BME280;1680;48.106;11.708;2023-01-28T11:50:07;96130.03;;;3.92;82.47
1832;BME280;1680;48.106;11.708;2023-01-28T11:52:52;96129.66;;;4.03;82.45
1832;BME280;1680;48.106;11.708;2023-01-28T11:55:34;96122.47;;;4.21;81.28
1832;BME280;1680;48.106;11.708;2023-01-28T11:58:10;96126.75;;;3.98;80.95
1832;BME280;1680;48.106;11.708;2023-01-28T12:00:44;96120.63;;;3.83;81.19
1832;BME280;1680;48.106;11.708;2023-01-28T12:03:25;96117.34;;;4.05;92.60
1832;BME280;1680;48.106;11.708;2023-01-28T12:06:14;96112.88;;;5.56;93.49
1832;BME280;1680;48.106;11.708;2023-01-28T12:08:51;96121.56;;;5.12;80.83
1832;BME280;1680;48.106;11.708;2023-01-28T12:11:29;96122.44;;;4.82;80.19
1832;BME280;1680;48.106;11.708;2023-01-28T12:14:24;96124.66;;;4.32;79.14
1832;BME280;1680;48.106;11.708;2023-01-28T12:17:07;96108.56;;;5.12;94.61
1832;BME280;1680;48.106;11.708;2023-01-28T12:19:59;96122.94;;;7.98;92.07
1832;BME280;1680;48.106;11.708;2023-01-28T12:22:48;96126.00;;;8.08;68.37
1832;BME280;1680;48.106;11.708;2023-01-28T12:25:29;96121.75;;;7.73;75.90
1832;BME280;1680;48.106;11.708;2023-01-28T12:28:07;96118.00;;;7.07;71.86
1832;BME280;1680;48.106;11.708;2023-01-28T12:30:56;96119.03;;;6.35;68.73
1832;BME280;1680;48.106;11.708;2023-01-28T12:33:47;96112.88;;;5.56;71.57
1832;BME280;1680;48.106;11.708;2023-01-28T12:36:25;96113.53;;;5.21;73.33
1832;BME280;1680;48.106;11.708;2023-01-28T12:39:04;96121.41;;;4.91;73.82
1832;BME280;1680;48.106;11.708;2023-01-28T12:41:41;96108.56;;;4.45;74.26
1832;BME280;1680;48.106;11.708;2023-01-28T12:44:13;96109.53;;;4.44;76.08
1832;BME280;1680;48.106;11.708;2023-01-28T12:46:46;96115.91;;;4.33;75.12
1832;BME280;1680;48.106;11.708;2023-01-28T12:49:20;96128.97;;;3.71;77.09
1832;BME280;1680;48.106;11.708;2023-01-28T12:51:58;96125.28;;;3.50;79.80
1832;BME280;1680;48.106;11.708;2023-01-28T12:54:33;96123.47;;;3.50;80.79
1832;BME280;1680;48.106;11.708;2023-01-28T12:57:03;96121.28;;;3.85;85.04
1832;BME280;1680;48.106;11.708;2023-01-28T12:59:35;96116.03;;;4.09;81.86
1832;BME280;1680;48.106;11.708;2023-01-28T13:02:16;96123.19;;;3.99;78.44
1832;BME280;1680;48.106;11.708;2023-01-28T13:04:50;96116.16;;;3.70;79.98
1832;BME280;1680;48.106;11.708;2023-01-28T13:07:24;96107.72;;;3.68;79.53
1832;BME280;1680;48.106;11.708;2023-01-28T13:09:58;96127.16;;;3.80;79.61
1832;BME280;1680;48.106;11.708;2023-01-28T13:12:31;96109.16;;;3.78;80.91
1832;BME280;1680;48.106;11.708;2023-01-28T13:14:59;96118.69;;;3.85;79.77
1832;BME280;1680;48.106;11.708;2023-01-28T13:17:29;96121.97;;;3.80;79.57
1832;BME280;1680;48.106;11.708;2023-01-28T13:19:57;96136.84;;;3.85;79.86
1832;BME280;1680;48.106;11.708;2023-01-28T13:22:27;96123.22;;;3.83;80.30
1832;BME280;1680;48.106;11.708;2023-01-28T13:24:55;96109.69;;;3.66;80.09
1832;BME280;1680;48.106;11.708;2023-01-28T13:27:25;96129.47;;;3.67;80.25
1832;BME280;1680;48.106;11.708;2023-01-28T13:30:04;96131.72;;;3.54;81.24
1832;BME280;1680;48.106;11.708;2023-01-28T13:32:33;96136.31;;;3.52;81.01
1832;BME280;1680;48.106;11.708;2023-01-28T13:35:03;96135.66;;;3.50;81.17
1832;BME280;1680;48.106;11.708;2023-01-28T13:37:33;96137.94;;;3.29;81.08